Time;durP1;ratioP1;P1;durP2;ratioP2;P2;SDS_P1;SDS_P2;PMS_P1;PMS_P2;Temp;Humidity;BMP_temperature;BMP_pressure;BME280_temperature;BME280_humidity;BME280_pressure;Samples;Min_cycle;Max_cycle;Signal;HPM_P1;HPM_P2
2022/10/19 00:01:35;;;;;;;;;;;;;;;19.74;65.02;96322.22;5051629;28;20067;-66
2022/10/19 00:04:01;;;;;;;;;;;;;;;19.87;65.16;96311.47;5051674;28;20112;-65
2022/10/19 00:06:30;;;;;;;;;;;;;;;19.95;64.87;96315.97;5045011;28;20113;-68
2022/10/19 00:09:00;;;;;;;;;;;;;;;20.01;64.92;96322.72;5032044;28;20489;-66
2022/10/19 00:11:26;;;;;;;;;;;;;;;20.07;64.74;96316.00;5046686;28;20017;-65
2022/10/19 00:13:51;;;;;;;;;;;;;;;20.11;64.70;96316.88;5051624;28;20097;-65
2022/10/19 00:16:17;;;;;;;;;;;;;;;20.15;64.45;96319.72;5052293;28;20355;-66
2022/10/19 00:18:43;;;;;;;;;;;;;;;20.21;64.37;96313.75;5049445;28;20024;-66
2022/10/19 00:21:10;;;;;;;;;;;;;;;20.23;64.06;96316.91;5050921;28;20643;-66
2022/10/19 00:23:35;;;;;;;;;;;;;;;20.26;63.60;96318.16;5050510;28;20382;-66
2022/10/19 00:26:01;;;;;;;;;;;;;;;20.22;63.57;96325.38;5050711;28;20019;-66
2022/10/19 00:28:26;;;;;;;;;;;;;;;20.22;63.66;96320.75;5051038;28;20100;-66
2022/10/19 00:30:51;;;;;;;;;;;;;;;20.26;63.62;96313.53;5049545;28;20025;-66
2022/10/19 00:33:20;;;;;;;;;;;;;;;20.26;63.64;96318.16;5051961;28;20013;-66
2022/10/19 00:35:47;;;;;;;;;;;;;;;20.27;63.52;96311.63;5050692;28;20025;-66
2022/10/19 00:38:12;;;;;;;;;;;;;;;20.25;63.52;96306.56;5050623;28;20064;-66
2022/10/19 00:40:38;;;;;;;;;;;;;;;20.21;63.43;96304.84;5050539;28;20133;-66
2022/10/19 00:43:04;;;;;;;;;;;;;;;20.07;62.97;96313.31;5050159;28;20013;-65
2022/10/19 00:45:30;;;;;;;;;;;;;;;20.11;63.58;96313.41;5050028;28;20496;-66
2022/10/19 00:47:55;;;;;;;;;;;;;;;20.15;63.85;96314.31;5049407;28;20021;-66
2022/10/19 00:50:20;;;;;;;;;;;;;;;20.19;63.72;96313.31;5049923;28;20124;-65
2022/10/19 00:52:46;;;;;;;;;;;;;;;20.23;63.56;96308.03;5050235;28;20061;-66
2022/10/19 00:55:11;;;;;;;;;;;;;;;20.26;63.57;96307.34;5049121;28;20512;-65
2022/10/19 00:57:37;;;;;;;;;;;;;;;20.26;63.50;96305.41;5049437;28;20453;-66
2022/10/19 01:00:04;;;;;;;;;;;;;;;20.13;63.14;96303.84;5049803;28;20059;-65
2022/10/19 01:02:29;;;;;;;;;;;;;;;20.01;63.43;96298.44;5050165;28;20017;-66
2022/10/19 01:04:55;;;;;;;;;;;;;;;19.78;63.81;96306.16;5049851;28;20063;-65
2022/10/19 01:07:20;;;;;;;;;;;;;;;19.74;64.09;96302.56;5049369;28;20515;-67
2022/10/19 01:09:45;;;;;;;;;;;;;;;19.81;64.05;96299.28;5050770;28;20009;-66
2022/10/19 01:12:10;;;;;;;;;;;;;;;19.87;64.35;96298.75;5050023;28;20112;-66
2022/10/19 01:15:02;;;;;;;;;;;;;;;19.91;64.10;96293.47;5050964;28;20010;-66
2022/10/19 01:17:46;;;;;;;;;;;;;;;19.95;64.11;96297.06;5050201;28;20021;-67
2022/10/19 01:20:23;;;;;;;;;;;;;;;20.00;64.06;96297.63;5047846;28;20022;-66
2022/10/19 01:22:55;;;;;;;;;;;;;;;20.04;63.98;96286.97;5050065;28;20009;-66
2022/10/19 01:25:37;;;;;;;;;;;;;;;20.06;63.91;96290.09;5049473;28;20021;-68
2022/10/19 01:28:03;;;;;;;;;;;;;;;20.06;63.82;96292.03;5048498;28;20119;-66
2022/10/19 01:30:45;;;;;;;;;;;;;;;20.06;63.98;96282.00;5049556;28;20538;-67
2022/10/19 01:33:23;;;;;;;;;;;;;;;19.84;63.95;96287.84;5050821;28;20103;-66
2022/10/19 01:36:02;;;;;;;;;;;;;;;19.62;64.27;96276.31;5048442;28;20013;-66
2022/10/19 01:38:30;;;;;;;;;;;;;;;19.73;64.43;96282.09;5050238;28;20016;-66
2022/10/19 01:41:04;;;;;;;;;;;;;;;19.49;65.12;96280.06;5050154;28;20381;-66
2022/10/19 01:43:35;;;;;;;;;;;;;;;19.21;65.68;96277.97;5049609;28;20017;-66
2022/10/19 01:46:03;;;;;;;;;;;;;;;19.18;65.94;96283.22;5047014;28;20021;-67
2022/10/19 01:48:34;;;;;;;;;;;;;;;19.21;65.86;96280.66;5049960;28;20022;-67
2022/10/19 01:51:02;;;;;;;;;;;;;;;19.00;66.49;96271.81;5048753;28;20018;-66
2022/10/19 01:53:30;;;;;;;;;;;;;;;19.05;66.45;96278.91;5049141;28;20009;-67
2022/10/19 01:55:56;;;;;;;;;;;;;;;19.10;65.98;96278.72;5050095;28;20112;-66
2022/10/19 01:58:25;;;;;;;;;;;;;;;19.01;66.32;96278.00;5047352;28;20078;-66
2022/10/19 02:00:51;;;;;;;;;;;;;;;18.76;67.24;96283.25;5050275;28;20009;-66
2022/10/19 02:03:17;;;;;;;;;;;;;;;18.36;68.89;96280.94;5048696;28;20017;-67
2022/10/19 02:05:43;;;;;;;;;;;;;;;18.31;69.24;96283.03;5048436;28;20025;-67
2022/10/19 02:08:11;;;;;;;;;;;;;;;18.20;69.54;96279.91;5048908;28;20021;-66
2022/10/19 02:10:37;;;;;;;;;;;;;;;18.63;68.58;96281.56;5048686;28;20093;-67
2022/10/19 02:13:03;;;;;;;;;;;;;;;18.95;68.02;96277.41;5049809;28;20478;-66
2022/10/19 02:15:29;;;;;;;;;;;;;;;19.09;67.36;96280.63;5048199;28;20013;-66
2022/10/19 02:17:58;;;;;;;;;;;;;;;19.28;67.10;96282.03;5049986;28;20010;-66
2022/10/19 02:20:23;;;;;;;;;;;;;;;19.13;66.58;96283.44;5046949;28;20399;-67
2022/10/19 02:22:48;;;;;;;;;;;;;;;18.70;68.16;96277.25;5048812;28;20010;-66
2022/10/19 02:25:14;;;;;;;;;;;;;;;19.11;67.34;96272.97;5049773;28;20014;-66
2022/10/19 02:27:42;;;;;;;;;;;;;;;19.33;66.66;96279.91;5047596;28;20885;-66
2022/10/19 02:30:09;;;;;;;;;;;;;;;19.43;66.00;96276.00;5070377;23;20079;-74
2022/10/19 02:32:34;;;;;;;;;;;;;;;19.58;65.73;96269.19;5052279;28;20021;-74
2022/10/19 02:35:00;;;;;;;;;;;;;;;19.68;65.50;96271.50;5057732;28;20012;-74
2022/10/19 02:37:25;;;;;;;;;;;;;;;19.23;65.89;96267.63;5069172;28;20023;-74
2022/10/19 02:39:51;;;;;;;;;;;;;;;19.52;65.82;96268.63;5068786;28;20088;-74
2022/10/19 02:42:19;;;;;;;;;;;;;;;19.65;65.46;96264.06;5050628;28;20021;-73
2022/10/19 02:44:55;;;;;;;;;;;;;;;19.71;64.85;96258.13;5064624;28;20230;-74
2022/10/19 02:47:23;;;;;;;;;;;;;;;19.73;64.70;96263.97;5031192;28;20851;-73
2022/10/19 02:49:49;;;;;;;;;;;;;;;19.76;64.70;96262.53;5063830;28;20477;-73
2022/10/19 02:52:14;;;;;;;;;;;;;;;19.86;64.72;96254.00;5068890;28;20017;-73
2022/10/19 02:54:41;;;;;;;;;;;;;;;19.96;64.58;96263.53;5051856;28;20063;-73
2022/10/19 02:57:20;;;;;;;;;;;;;;;20.01;64.39;96257.91;5051608;28;20124;-73
2022/10/19 02:59:45;;;;;;;;;;;;;;;20.05;64.29;96258.03;5059573;28;20111;-74
2022/10/19 03:02:11;;;;;;;;;;;;;;;20.07;64.01;96253.88;5068481;28;20512;-74
2022/10/19 03:04:36;;;;;;;;;;;;;;;20.10;63.86;96255.13;5068504;28;20013;-74
2022/10/19 03:07:02;;;;;;;;;;;;;;;20.04;63.72;96249.16;5068440;28;20029;-74
2022/10/19 03:09:27;;;;;;;;;;;;;;;20.02;64.04;96256.03;5049100;28;20059;-74
2022/10/19 03:11:54;;;;;;;;;;;;;;;20.01;63.99;96249.81;5054698;28;20018;-74
2022/10/19 03:14:19;;;;;;;;;;;;;;;20.03;63.84;96255.69;5073098;28;20017;-75
2022/10/19 03:16:44;;;;;;;;;;;;;;;20.07;63.90;96250.41;5071195;28;20689;-74
2022/10/19 03:19:10;;;;;;;;;;;;;;;19.89;63.65;96250.59;5073047;28;20070;-74
2022/10/19 03:21:35;;;;;;;;;;;;;;;19.91;64.14;96251.06;5072083;28;20111;-74
2022/10/19 03:24:00;;;;;;;;;;;;;;;19.84;64.32;96253.53;5068897;28;20024;-74
2022/10/19 03:26:25;;;;;;;;;;;;;;;19.90;64.31;96246.00;5072800;28;20052;-73
2022/10/19 03:28:51;;;;;;;;;;;;;;;19.88;64.14;96245.53;5064137;28;20157;-73
2022/10/19 03:31:16;;;;;;;;;;;;;;;19.95;64.31;96246.56;5071935;28;20380;-74
2022/10/19 03:33:41;;;;;;;;;;;;;;;19.98;64.25;96245.88;5072032;28;20056;-74
2022/10/19 03:36:19;;;;;;;;;;;;;;;19.96;64.25;96240.03;5056782;28;20036;-74
2022/10/19 03:38:44;;;;;;;;;;;;;;;19.98;64.16;96242.41;5034142;28;20017;-74
2022/10/19 03:41:09;;;;;;;;;;;;;;;19.85;63.99;96238.09;5071763;28;20497;-75
2022/10/19 03:43:35;;;;;;;;;;;;;;;19.89;64.16;96239.81;5054603;28;20013;-74
2022/10/19 03:46:00;;;;;;;;;;;;;;;19.95;64.13;96232.25;5053813;28;20013;-74
2022/10/19 03:48:25;;;;;;;;;;;;;;;19.90;64.21;96237.88;5071396;28;20021;-74
2022/10/19 03:50:58;;;;;;;;;;;;;;;19.96;64.03;96236.53;5067359;28;20017;-73
2022/10/19 03:53:23;;;;;;;;;;;;;;;20.02;64.10;96237.91;5063986;28;20021;-74
2022/10/19 03:55:48;;;;;;;;;;;;;;;20.05;63.87;96231.81;5071503;28;20019;-74
2022/10/19 03:58:14;;;;;;;;;;;;;;;20.07;63.75;96226.88;5071588;28;20017;-73
2022/10/19 04:00:39;;;;;;;;;;;;;;;20.05;63.60;96223.72;5071844;28;20017;-74
2022/10/19 04:03:04;;;;;;;;;;;;;;;20.08;63.65;96227.66;5071191;28;20013;-75
2022/10/19 04:05:29;;;;;;;;;;;;;;;20.06;63.55;96225.28;5071747;28;20116;-74
2022/10/19 04:07:54;;;;;;;;;;;;;;;20.09;63.41;96224.63;5070122;28;20063;-75
2022/10/19 04:10:20;;;;;;;;;;;;;;;20.11;63.41;96227.75;5064425;28;20185;-74
2022/10/19 04:12:45;;;;;;;;;;;;;;;20.11;63.32;96221.56;5070851;28;20473;-74
2022/10/19 04:15:10;;;;;;;;;;;;;;;20.09;63.36;96223.84;5070950;28;20021;-74
2022/10/19 04:17:35;;;;;;;;;;;;;;;20.12;63.27;96220.47;5068268;28;20024;-74
2022/10/19 04:20:00;;;;;;;;;;;;;;;20.13;63.16;96224.75;5051915;28;20020;-74
2022/10/19 04:22:26;;;;;;;;;;;;;;;20.12;63.00;96225.88;5072180;28;20739;-75
2022/10/19 04:24:52;;;;;;;;;;;;;;;20.08;63.05;96225.75;5069828;28;20402;-74
2022/10/19 04:27:17;;;;;;;;;;;;;;;20.05;62.98;96228.31;5071040;28;20021;-74
2022/10/19 04:29:42;;;;;;;;;;;;;;;19.93;62.97;96221.81;5052534;28;20120;-74
2022/10/19 04:32:08;;;;;;;;;;;;;;;19.87;63.10;96222.38;5070830;28;20100;-73
2022/10/19 04:34:33;;;;;;;;;;;;;;;19.85;63.23;96213.81;5054182;28;20013;-74
2022/10/19 04:36:58;;;;;;;;;;;;;;;19.86;63.42;96218.06;5052861;28;20012;-74
2022/10/19 04:39:23;;;;;;;;;;;;;;;19.83;63.22;96216.84;5051434;28;20031;-74
2022/10/19 04:41:49;;;;;;;;;;;;;;;19.86;63.27;96209.97;5066367;28;20070;-74
2022/10/19 04:44:14;;;;;;;;;;;;;;;19.89;63.25;96217.41;5070157;28;20021;-74
2022/10/19 04:46:39;;;;;;;;;;;;;;;19.93;63.02;96216.41;5071702;28;20009;-75
2022/10/19 04:49:05;;;;;;;;;;;;;;;19.60;62.95;96150.91;5051783;28;20477;-74
2022/10/19 04:51:30;;;;;;;;;;;;;;;20.05;62.82;96204.81;5071621;28;20107;-74
2022/10/19 04:53:57;;;;;;;;;;;;;;;20.11;62.63;96211.53;5063437;28;20385;-74
2022/10/19 04:56:25;;;;;;;;;;;;;;;20.15;62.50;96204.34;5071584;28;20020;-74
2022/10/19 04:58:52;;;;;;;;;;;;;;;20.18;62.48;96200.97;5067537;28;20108;-74
2022/10/19 05:01:19;;;;;;;;;;;;;;;20.21;62.60;96204.91;5069837;28;20086;-74
2022/10/19 05:03:45;;;;;;;;;;;;;;;20.25;62.34;96203.88;5064490;28;20032;-74
2022/10/19 05:06:11;;;;;;;;;;;;;;;20.25;62.08;96201.19;5053723;28;20385;-73
2022/10/19 05:08:36;;;;;;;;;;;;;;;20.27;61.87;96203.56;5069326;28;20025;-74
2022/10/19 05:11:13;;;;;;;;;;;;;;;20.31;62.00;96201.75;5070292;28;20010;-74
2022/10/19 05:13:39;;;;;;;;;;;;;;;20.34;61.85;96198.38;5069790;28;20013;-74
2022/10/19 05:16:05;;;;;;;;;;;;;;;20.38;61.93;96193.88;5047176;28;20018;-73
2022/10/19 05:18:30;;;;;;;;;;;;;;;20.40;61.79;96191.59;5066407;28;20021;-74
2022/10/19 05:21:06;;;;;;;;;;;;;;;20.44;61.79;96197.91;5069229;28;20013;-74
2022/10/19 05:23:31;;;;;;;;;;;;;;;20.45;61.75;96191.34;5052268;28;20433;-73
2022/10/19 05:26:06;;;;;;;;;;;;;;;20.46;61.73;96187.56;5065842;28;20131;-72
2022/10/19 05:28:32;;;;;;;;;;;;;;;20.46;61.83;96194.84;5070304;28;20104;-72
2022/10/19 05:31:23;;;;;;;;;;;;;;;20.47;61.78;96199.16;5052294;28;20100;-72
2022/10/19 05:33:49;;;;;;;;;;;;;;;20.49;61.99;96195.00;5066042;28;20063;-72
2022/10/19 05:36:18;;;;;;;;;;;;;;;20.51;61.84;96192.72;5068876;28;20025;-69
2022/10/19 05:38:44;;;;;;;;;;;;;;;20.51;61.89;96194.63;5067672;28;20481;-74
2022/10/19 05:41:10;;;;;;;;;;;;;;;20.55;61.76;96192.03;5051005;28;20485;-68
2022/10/19 05:43:35;;;;;;;;;;;;;;;20.51;61.68;96194.63;5070437;28;20009;-67
2022/10/19 05:46:05;;;;;;;;;;;;;;;20.53;61.57;96195.09;5071365;28;20412;-74
2022/10/19 05:48:34;;;;;;;;;;;;;;;20.52;61.77;96190.81;5068657;28;20102;-73
2022/10/19 05:51:00;;;;;;;;;;;;;;;20.55;61.78;96192.03;5069875;28;20672;-74
2022/10/19 05:53:25;;;;;;;;;;;;;;;20.57;61.66;96193.25;5069881;28;20119;-73
2022/10/19 05:55:51;;;;;;;;;;;;;;;20.59;61.47;96195.66;5071908;28;20509;-76
2022/10/19 05:58:16;;;;;;;;;;;;;;;20.59;61.39;96196.44;5069872;28;20021;-80
2022/10/19 06:00:41;;;;;;;;;;;;;;;20.61;61.35;96191.47;5054389;28;20020;-78
2022/10/19 06:03:06;;;;;;;;;;;;;;;20.61;61.29;96196.88;5070877;28;20020;-73
2022/10/19 06:05:34;;;;;;;;;;;;;;;20.66;61.25;96193.13;5070609;28;20017;-75
2022/10/19 06:08:00;;;;;;;;;;;;;;;20.65;61.29;96191.56;5071234;28;20021;-72
2022/10/19 06:10:25;;;;;;;;;;;;;;;20.69;61.08;96193.25;5050497;28;20492;-70
2022/10/19 06:12:50;;;;;;;;;;;;;;;20.70;61.05;96200.22;5072767;28;20020;-70
2022/10/19 06:15:15;;;;;;;;;;;;;;;20.70;61.04;96205.63;5070056;28;20023;-69
2022/10/19 06:17:40;;;;;;;;;;;;;;;20.74;60.87;96208.44;5052411;28;20492;-70
2022/10/19 06:20:06;;;;;;;;;;;;;;;20.75;60.84;96202.69;5045825;28;20016;-71
2022/10/19 06:22:31;;;;;;;;;;;;;;;20.77;60.75;96207.75;5065335;28;20696;-70
2022/10/19 06:24:56;;;;;;;;;;;;;;;20.84;60.82;96209.88;5057767;28;20506;-72
2022/10/19 06:27:21;;;;;;;;;;;;;;;20.86;60.51;96208.38;5069667;28;20024;-72
2022/10/19 06:29:47;;;;;;;;;;;;;;;20.89;60.45;96204.22;5069199;28;20420;-72
2022/10/19 06:32:12;;;;;;;;;;;;;;;20.88;60.33;96210.75;5070076;28;20104;-73
2022/10/19 06:34:37;;;;;;;;;;;;;;;20.88;60.46;96214.25;5070750;28;20009;-71
2022/10/19 06:37:02;;;;;;;;;;;;;;;20.94;60.26;96210.19;5052530;28;20014;-72
2022/10/19 06:39:27;;;;;;;;;;;;;;;20.92;59.98;96217.03;5051369;28;20009;-72
2022/10/19 06:41:53;;;;;;;;;;;;;;;20.93;60.00;96215.91;5069910;28;20020;-71
2022/10/19 06:44:18;;;;;;;;;;;;;;;20.94;59.96;96214.78;5072853;28;20055;-69
2022/10/19 06:46:43;;;;;;;;;;;;;;;20.95;59.83;96219.84;5074214;28;20674;-75
2022/10/19 06:49:11;;;;;;;;;;;;;;;20.95;59.69;96225.25;5074848;28;20009;-73
2022/10/19 06:51:36;;;;;;;;;;;;;;;20.89;59.43;96220.44;5073179;28;20024;-73
2022/10/19 06:54:01;;;;;;;;;;;;;;;20.85;59.76;96227.66;5074515;28;20009;-73
2022/10/19 06:56:26;;;;;;;;;;;;;;;20.83;59.85;96233.44;5055960;28;20013;-73
2022/10/19 06:58:52;;;;;;;;;;;;;;;20.33;61.46;96233.84;5072424;28;20024;-73
2022/10/19 07:01:18;;;;;;;;;;;;;;;19.87;62.74;96241.28;5074077;28;20049;-75
2022/10/19 07:03:43;;;;;;;;;;;;;;;19.44;64.60;96237.91;5049416;28;20017;-74
2022/10/19 07:06:10;;;;;;;;;;;;;;;19.54;64.68;96242.09;5054047;28;20010;-73
2022/10/19 07:08:36;;;;;;;;;;;;;;;19.65;64.20;96243.25;5053325;28;20028;-74
2022/10/19 07:11:02;;;;;;;;;;;;;;;19.48;64.22;96238.03;5035892;28;20021;-72
2022/10/19 07:13:28;;;;;;;;;;;;;;;19.36;64.11;96248.81;5066956;28;20013;-72
2022/10/19 07:16:02;;;;;;;;;;;;;;;19.92;62.95;96241.06;5055632;28;20020;-75
2022/10/19 07:18:27;;;;;;;;;;;;;;;20.11;61.88;96232.38;5055116;28;20024;-72
2022/10/19 07:21:00;;;;;;;;;;;;;;;20.15;61.55;96233.28;5073312;28;20036;-74
2022/10/19 07:23:26;;;;;;;;;;;;;;;19.18;63.88;96240.84;5073639;28;20039;-72
2022/10/19 07:25:52;;;;;;;;;;;;;;;19.16;64.12;96240.41;5071729;28;20043;-73
2022/10/19 07:28:19;;;;;;;;;;;;;;;19.28;64.16;96238.88;5062926;28;20116;-73
2022/10/19 07:30:44;;;;;;;;;;;;;;;19.83;62.72;96235.75;5071982;28;20070;-73
2022/10/19 07:33:09;;;;;;;;;;;;;;;20.19;62.03;96237.66;5066992;28;20013;-72
2022/10/19 07:35:35;;;;;;;;;;;;;;;20.42;61.20;96232.59;5055163;28;20441;-72
2022/10/19 07:38:00;;;;;;;;;;;;;;;20.63;60.44;96229.75;5073293;28;20074;-73
2022/10/19 07:40:25;;;;;;;;;;;;;;;20.53;59.65;96237.56;5072753;28;20009;-73
2022/10/19 07:42:51;;;;;;;;;;;;;;;19.79;62.20;96232.13;5071667;28;20381;-73
2022/10/19 07:45:16;;;;;;;;;;;;;;;20.20;61.29;96227.66;5064374;28;20009;-73
2022/10/19 07:47:41;;;;;;;;;;;;;;;19.77;62.22;96241.72;5052944;28;20072;-73
2022/10/19 07:50:06;;;;;;;;;;;;;;;20.13;61.16;96235.53;5050947;28;20060;-74
2022/10/19 07:52:32;;;;;;;;;;;;;;;19.69;61.86;96237.97;5043921;28;20017;-74
2022/10/19 07:54:57;;;;;;;;;;;;;;;19.55;62.55;96234.78;5034214;28;20014;-73
2022/10/19 07:57:22;;;;;;;;;;;;;;;19.36;62.77;96240.72;5054764;28;20021;-73
2022/10/19 07:59:47;;;;;;;;;;;;;;;19.43;63.59;96232.84;5072415;28;20009;-73
2022/10/19 08:02:14;;;;;;;;;;;;;;;19.21;64.04;96231.31;5071791;28;20039;-73
2022/10/19 08:04:40;;;;;;;;;;;;;;;19.48;63.78;96236.13;5072867;28;20009;-75
2022/10/19 08:07:05;;;;;;;;;;;;;;;19.52;63.28;96228.16;5072965;28;20070;-74
2022/10/19 08:09:30;;;;;;;;;;;;;;;20.27;61.96;96230.59;5072685;28;20104;-74
2022/10/19 08:11:55;;;;;;;;;;;;;;;20.67;61.11;96236.03;5055019;28;20110;-74
2022/10/19 08:14:21;;;;;;;;;;;;;;;20.76;59.72;96233.22;5059538;28;20024;-75
2022/10/19 08:16:46;;;;;;;;;;;;;;;20.93;59.14;96235.63;5052596;28;20557;-74
2022/10/19 08:19:13;;;;;;;;;;;;;;;21.05;59.20;96237.50;5034439;28;20087;-73
2022/10/19 08:21:41;;;;;;;;;;;;;;;21.18;58.62;96240.94;5051330;28;20014;-74
2022/10/19 08:24:06;;;;;;;;;;;;;;;21.26;57.97;96242.72;5051566;28;20013;-74
2022/10/19 08:26:33;;;;;;;;;;;;;;;21.21;58.18;96243.75;5042539;28;20024;-73
2022/10/19 08:29:01;;;;;;;;;;;;;;;20.58;59.16;96240.81;5071582;28;20021;-74
2022/10/19 08:31:26;;;;;;;;;;;;;;;20.86;59.32;96240.84;5071270;28;20074;-73
2022/10/19 08:33:51;;;;;;;;;;;;;;;21.12;58.79;96236.91;5070920;28;20045;-73
2022/10/19 08:36:18;;;;;;;;;;;;;;;20.99;58.53;96233.47;5034702;28;20021;-73
2022/10/19 08:38:43;;;;;;;;;;;;;;;21.09;58.32;96232.19;5052156;28;20010;-73
2022/10/19 08:41:26;;;;;;;;;;;;;;;20.70;59.43;96229.19;5052170;28;20078;-74
2022/10/19 08:44:07;;;;;;;;;;;;;;;21.06;58.86;96230.97;5053020;28;20017;-72
2022/10/19 08:46:35;;;;;;;;;;;;;;;21.25;58.38;96223.00;5053828;28;20136;-73
2022/10/19 08:49:01;;;;;;;;;;;;;;;21.45;57.79;96229.34;5053674;28;20081;-74
2022/10/19 08:51:28;;;;;;;;;;;;;;;21.49;57.34;96237.53;5053593;28;20020;-74
2022/10/19 08:53:54;;;;;;;;;;;;;;;21.23;57.51;96232.56;5053774;28;20377;-74
2022/10/19 08:56:28;;;;;;;;;;;;;;;21.00;58.04;96225.03;5070248;28;20045;-74
2022/10/19 08:59:07;;;;;;;;;;;;;;;21.10;58.20;96225.66;5070423;28;20023;-74
2022/10/19 09:01:42;;;;;;;;;;;;;;;21.55;57.79;96228.06;5071761;28;20063;-73
2022/10/19 09:04:29;;;;;;;;;;;;;;;21.79;57.08;96236.00;5071421;28;20012;-73
2022/10/19 09:06:58;;;;;;;;;;;;;;;21.12;58.06;96235.00;5070128;28;20083;-74
2022/10/19 09:09:24;;;;;;;;;;;;;;;21.20;58.33;96222.47;5070243;28;20021;-74
2022/10/19 09:11:51;;;;;;;;;;;;;;;21.41;58.14;96228.47;5071470;28;20489;-74
2022/10/19 09:14:24;;;;;;;;;;;;;;;21.51;57.34;96235.28;5061939;28;20021;-74
2022/10/19 09:16:49;;;;;;;;;;;;;;;20.81;58.07;96222.16;5071053;28;20010;-73
2022/10/19 09:19:24;;;;;;;;;;;;;;;21.06;58.33;96197.72;5070696;28;20123;-73
2022/10/19 09:21:55;;;;;;;;;;;;;;;21.53;57.19;96219.47;5070117;28;20043;-73
2022/10/19 09:24:20;;;;;;;;;;;;;;;21.57;56.62;96219.56;5052694;28;20017;-74
2022/10/19 09:26:51;;;;;;;;;;;;;;;20.96;57.85;96228.75;5052807;28;20014;-73
2022/10/19 09:29:31;;;;;;;;;;;;;;;20.86;58.86;96223.81;5060346;28;20025;-73
2022/10/19 09:31:59;;;;;;;;;;;;;;;21.15;58.04;96223.50;5068804;28;20013;-73
2022/10/19 09:34:29;;;;;;;;;;;;;;;20.91;57.63;96218.19;5051683;28;20013;-73
2022/10/19 09:36:56;;;;;;;;;;;;;;;21.10;58.33;96220.25;5070743;28;20009;-73
2022/10/19 09:39:21;;;;;;;;;;;;;;;21.89;56.80;96220.38;5070210;28;20092;-74
2022/10/19 09:41:50;;;;;;;;;;;;;;;22.08;55.13;96228.56;5070599;28;20474;-73
2022/10/19 09:44:16;;;;;;;;;;;;;;;22.16;55.02;96224.94;5068871;28;20793;-74
2022/10/19 09:46:50;;;;;;;;;;;;;;;22.08;54.58;96225.06;5070360;28;20017;-73
2022/10/19 09:49:16;;;;;;;;;;;;;;;22.43;54.19;96234.06;5052285;28;20013;-73
2022/10/19 09:51:45;;;;;;;;;;;;;;;22.16;53.52;96240.38;5070527;28;20015;-74
2022/10/19 09:54:24;;;;;;;;;;;;;;;21.86;54.77;96231.91;5070513;28;20494;-73
2022/10/19 09:56:53;;;;;;;;;;;;;;;21.85;54.88;96231.09;5069235;28;20052;-74
2022/10/19 09:59:20;;;;;;;;;;;;;;;20.06;60.01;96229.91;5057530;28;20489;-74
2022/10/19 10:01:46;;;;;;;;;;;;;;;20.43;59.00;96228.75;5068783;28;20013;-73
2022/10/19 10:04:15;;;;;;;;;;;;;;;20.43;59.56;96234.16;5070392;28;20015;-73
2022/10/19 10:06:42;;;;;;;;;;;;;;;20.70;58.55;96237.28;5069150;28;20111;-74
2022/10/19 10:09:14;;;;;;;;;;;;;;;20.58;58.79;96240.81;5068749;28;20021;-77
2022/10/19 10:11:39;;;;;;;;;;;;;;;20.43;58.98;96236.09;5070458;28;20033;-74
2022/10/19 10:14:14;;;;;;;;;;;;;;;21.06;57.69;96233.66;5055134;28;20666;-74
2022/10/19 10:16:39;;;;;;;;;;;;;;;20.95;57.66;96230.69;5070174;28;20043;-74
2022/10/19 10:19:06;;;;;;;;;;;;;;;20.49;58.47;96232.81;5068041;28;20106;-73
2022/10/19 10:21:54;;;;;;;;;;;;;;;20.62;58.36;96238.19;5069521;28;20017;-75
2022/10/19 10:24:20;;;;;;;;;;;;;;;20.96;57.20;96228.75;5070551;28;20055;-78
2022/10/19 10:26:47;;;;;;;;;;;;;;;21.26;56.47;96229.97;5069891;28;20070;-71
2022/10/19 10:29:21;;;;;;;;;;;;;;;21.35;55.80;96234.47;5037583;28;20198;-72
2022/10/19 10:31:48;;;;;;;;;;;;;;;21.41;56.01;96216.84;5069276;28;20013;-72
2022/10/19 10:34:25;;;;;;;;;;;;;;;21.36;55.74;96217.09;5069907;28;20048;-72
2022/10/19 10:36:52;;;;;;;;;;;;;;;21.38;55.44;96214.84;5051841;28;20035;-72
2022/10/19 10:39:19;;;;;;;;;;;;;;;21.87;54.56;96209.09;5051358;28;20116;-71
2022/10/19 10:41:46;;;;;;;;;;;;;;;22.03;54.08;96210.66;5052075;28;20108;-71
2022/10/19 10:44:33;;;;;;;;;;;;;;;21.88;53.66;96216.09;5067890;28;20515;-72
2022/10/19 10:46:59;;;;;;;;;;;;;;;21.90;53.53;96208.38;5039640;28;20021;-71
2022/10/19 10:49:25;;;;;;;;;;;;;;;22.19;53.31;96213.38;5049429;28;20555;-72
2022/10/19 10:51:53;;;;;;;;;;;;;;;22.03;52.59;96212.59;5049958;28;20010;-71
2022/10/19 10:54:25;;;;;;;;;;;;;;;21.54;53.55;96210.22;5036194;28;20017;-72
2022/10/19 10:57:11;;;;;;;;;;;;;;;21.58;54.09;96204.91;5051950;28;20036;-73
2022/10/19 10:59:37;;;;;;;;;;;;;;;21.43;54.56;96209.94;5051191;28;20021;-73
2022/10/19 11:02:11;;;;;;;;;;;;;;;21.49;54.71;96202.34;5051904;28;20019;-73
2022/10/19 11:04:39;;;;;;;;;;;;;;;21.62;53.82;96203.84;5051714;28;20020;-73
2022/10/19 11:07:23;;;;;;;;;;;;;;;21.34;55.00;96200.41;5068925;28;20017;-75
2022/10/19 11:09:52;;;;;;;;;;;;;;;21.10;55.04;96199.41;5051529;28;20485;-68
2022/10/19 11:12:18;;;;;;;;;;;;;;;21.49;54.52;96189.59;5070450;28;20009;-70
2022/10/19 11:14:52;;;;;;;;;;;;;;;21.83;53.71;96192.75;5068938;28;20017;-70
2022/10/19 11:17:22;;;;;;;;;;;;;;;21.78;53.69;96193.81;5069535;28;20506;-69
2022/10/19 11:19:50;;;;;;;;;;;;;;;21.35;54.71;96183.06;5068458;28;20437;-70
2022/10/19 11:22:15;;;;;;;;;;;;;;;21.42;54.67;96175.91;5069603;28;20492;-69
2022/10/19 11:24:46;;;;;;;;;;;;;;;22.07;53.76;96175.53;5069573;28;20009;-69
2022/10/19 11:27:25;;;;;;;;;;;;;;;22.05;52.72;96185.91;5069476;28;20024;-70
2022/10/19 11:30:16;;;;;;;;;;;;;;;21.96;52.95;96179.91;5053906;28;20036;-70
2022/10/19 11:32:50;;;;;;;;;;;;;;;22.19;52.24;96170.00;5069213;28;20052;-70
2022/10/19 11:35:33;;;;;;;;;;;;;;;22.34;51.74;96173.81;5071466;28;20495;-68
2022/10/19 11:38:17;;;;;;;;;;;;;;;22.35;52.12;96171.91;5070132;28;20112;-68
2022/10/19 11:40:53;;;;;;;;;;;;;;;22.01;52.74;96171.53;5073039;28;20167;-69
2022/10/19 11:43:29;;;;;;;;;;;;;;;22.42;51.80;96156.59;5072912;28;20379;-69
2022/10/19 11:46:07;;;;;;;;;;;;;;;22.62;51.01;96156.56;5072307;28;20017;-67
2022/10/19 11:48:47;;;;;;;;;;;;;;;22.43;51.40;96157.38;5071067;28;20017;-68
2022/10/19 11:51:26;;;;;;;;;;;;;;;22.55;51.00;96143.66;5072280;28;20021;-67
2022/10/19 11:53:51;;;;;;;;;;;;;;;22.20;51.59;96135.56;5072904;28;20038;-68
2022/10/19 11:56:36;;;;;;;;;;;;;;;22.26;50.89;96137.63;5054150;28;20377;-68
2022/10/19 11:59:10;;;;;;;;;;;;;;;22.80;50.65;96138.75;5071981;28;20012;-67
2022/10/19 12:01:38;;;;;;;;;;;;;;;22.53;50.44;96138.59;5072463;28;20027;-68
2022/10/19 12:04:22;;;;;;;;;;;;;;;22.77;49.58;96128.59;5072767;28;20013;-68
2022/10/19 12:07:00;;;;;;;;;;;;;;;22.82;49.46;96126.38;5071386;28;20020;-68
2022/10/19 12:09:34;;;;;;;;;;;;;;;22.64;49.78;96129.91;5072276;28;20353;-68
2022/10/19 12:12:00;;;;;;;;;;;;;;;22.38;49.93;96122.41;5072393;28;20008;-68
2022/10/19 12:14:27;;;;;;;;;;;;;;;22.60;48.80;96127.09;5071702;28;20453;-68
2022/10/19 12:16:55;;;;;;;;;;;;;;;22.90;48.95;96132.75;5071241;28;20009;-68
2022/10/19 12:19:23;;;;;;;;;;;;;;;22.92;47.74;96125.03;5071886;28;20009;-68
2022/10/19 12:21:49;;;;;;;;;;;;;;;22.45;48.96;96120.59;5072389;28;20494;-68
2022/10/19 12:24:17;;;;;;;;;;;;;;;21.80;50.14;96118.44;5072260;28;20107;-68
2022/10/19 12:26:43;;;;;;;;;;;;;;;22.22;49.20;96109.69;5072492;28;20415;-68
2022/10/19 12:29:12;;;;;;;;;;;;;;;22.47;48.09;96112.94;5070107;28;20016;-68
2022/10/19 12:31:37;;;;;;;;;;;;;;;22.63;46.98;96088.44;5071362;28;20021;-69
2022/10/19 12:34:21;;;;;;;;;;;;;;;23.18;46.91;96104.56;5072334;28;20078;-67
2022/10/19 12:36:53;;;;;;;;;;;;;;;23.13;46.78;96096.72;5071705;28;20058;-69
2022/10/19 12:39:18;;;;;;;;;;;;;;;22.71;47.07;96097.47;5070547;28;20120;-68
2022/10/19 12:41:58;;;;;;;;;;;;;;;22.47;47.66;96098.56;5071826;28;20541;-68
2022/10/19 12:44:38;;;;;;;;;;;;;;;22.47;47.31;96093.94;5072013;28;20408;-68
2022/10/19 12:47:30;;;;;;;;;;;;;;;22.53;47.68;96086.31;5033678;28;20071;-68
2022/10/19 12:49:56;;;;;;;;;;;;;;;22.96;47.31;96082.47;5032345;28;20018;-69
2022/10/19 12:52:34;;;;;;;;;;;;;;;22.82;46.91;96093.81;5051727;28;20071;-69
2022/10/19 12:55:33;;;;;;;;;;;;;;;22.77;47.01;96088.69;5033671;28;20553;-69